createdAt,value
2023-11-18T00:02:19.949Z,29.95
2023-11-18T00:04:48.035Z,35.72
2023-11-18T00:07:17.830Z,33.08
2023-11-18T00:09:46.922Z,35.85
2023-11-18T00:12:15.128Z,37.80
2023-11-18T00:14:43.701Z,37.15
2023-11-18T00:17:11.081Z,33.92
2023-11-18T00:19:38.070Z,34.85
2023-11-18T00:22:04.920Z,33.22
2023-11-18T00:24:35.158Z,33.53
2023-11-18T00:27:08.734Z,34.92
2023-11-18T00:29:36.087Z,34.70
2023-11-18T00:32:04.262Z,30.90
2023-11-18T00:34:31.335Z,30.52
2023-11-18T00:36:58.581Z,26.33
2023-11-18T00:39:26.307Z,37.17
2023-11-18T00:41:53.130Z,33.13
2023-11-18T00:44:20.324Z,30.83
2023-11-18T00:46:47.225Z,31.13
2023-11-18T00:49:14.252Z,27.88
2023-11-18T00:51:42.309Z,26.02
2023-11-18T00:54:09.197Z,31.55
2023-11-18T00:56:36.105Z,33.47
2023-11-18T00:59:03.046Z,23.25
2023-11-18T01:01:30.238Z,25.63
2023-11-18T01:04:00.364Z,25.98
2023-11-18T01:06:29.437Z,23.13
2023-11-18T01:08:56.376Z,24.85
2023-11-18T01:11:25.743Z,23.20
2023-11-18T01:13:53.867Z,26.10
2023-11-18T01:16:20.752Z,24.23
2023-11-18T01:18:47.986Z,25.65
2023-11-18T01:21:14.946Z,24.05
2023-11-18T01:23:43.770Z,23.95
2023-11-18T01:26:10.833Z,27.63
2023-11-18T01:28:38.730Z,22.73
2023-11-18T01:31:06.128Z,26.13
2023-11-18T01:33:33.688Z,22.90
2023-11-18T01:36:00.720Z,22.25
2023-11-18T01:38:27.594Z,25.63
2023-11-18T01:40:54.694Z,36.47
2023-11-18T01:43:23.325Z,24.05
2023-11-18T01:45:50.502Z,25.98
2023-11-18T01:48:18.345Z,31.23
2023-11-18T01:50:45.750Z,29.17
2023-11-18T01:53:15.480Z,25.55
2023-11-18T01:55:43.780Z,23.20
2023-11-18T01:58:11.981Z,28.60
2023-11-18T02:00:43.461Z,28.42
2023-11-18T02:03:10.547Z,26.05
2023-11-18T02:05:38.190Z,25.25
2023-11-18T02:08:08.146Z,27.10
2023-11-18T02:10:51.731Z,28.70
2023-11-18T02:13:31.399Z,27.15
2023-11-18T02:15:59.309Z,36.63
2023-11-18T02:18:28.118Z,32.20
2023-11-18T02:20:59.968Z,34.97
2023-11-18T02:23:30.899Z,29.15
2023-11-18T02:25:58.127Z,28.55
2023-11-18T02:28:25.222Z,35.28
2023-11-18T02:30:59.476Z,35.05
2023-11-18T02:33:41.485Z,32.08
2023-11-18T02:36:19.037Z,36.80
2023-11-18T02:38:51.210Z,30.80
2023-11-18T02:47:58.534Z,36.15
2023-11-18T02:50:26.427Z,37.13
2023-11-18T02:52:53.615Z,29.73
2023-11-18T02:55:22.314Z,38.45
2023-11-18T02:57:50.542Z,32.83
2023-11-18T03:00:24.074Z,29.40
2023-11-18T03:02:53.076Z,26.42
2023-11-18T03:05:21.631Z,37.00
2023-11-18T03:07:54.612Z,32.40
2023-11-18T03:10:22.932Z,40.00
2023-11-18T03:12:51.910Z,34.65
2023-11-18T03:15:19.211Z,32.53
2023-11-18T03:17:47.310Z,39.15
2023-11-18T03:20:17.729Z,40.50
2023-11-18T03:22:48.558Z,33.78
2023-11-18T03:25:16.166Z,41.75
2023-11-18T03:27:44.046Z,42.38
2023-11-18T03:30:11.563Z,42.22
2023-11-18T03:32:41.669Z,42.42
2023-11-18T03:35:12.297Z,38.00
2023-11-18T03:37:44.065Z,39.97
2023-11-18T03:42:41.294Z,31.83
2023-11-18T03:45:10.764Z,29.08
2023-11-18T03:47:38.007Z,44.53
2023-11-18T03:50:06.511Z,32.85
2023-11-18T03:52:33.596Z,39.90
2023-11-18T03:55:00.910Z,34.38
2023-11-18T03:57:27.819Z,35.92
2023-11-18T03:59:55.032Z,38.78
2023-11-18T04:22:49.045Z,51.00
2023-11-18T04:25:16.377Z,45.47
2023-11-18T04:27:46.217Z,41.97
2023-11-18T04:30:14.631Z,42.95
2023-11-18T04:32:43.841Z,36.10
2023-11-18T04:35:12.979Z,44.05
2023-11-18T04:37:44.456Z,42.83
2023-11-18T04:40:12.204Z,45.47
2023-11-18T04:42:40.623Z,47.15
2023-11-18T04:45:10.398Z,47.83
2023-11-18T04:47:39.423Z,41.30
2023-11-18T04:50:09.591Z,44.20
2023-11-18T04:52:37.543Z,40.03
2023-11-18T04:55:07.181Z,40.80
2023-11-18T04:57:34.933Z,42.53
2023-11-18T05:00:11.371Z,42.10
2023-11-18T05:02:43.837Z,40.97
2023-11-18T05:05:10.753Z,48.05
2023-11-18T05:07:39.423Z,39.72
2023-11-18T05:10:09.555Z,35.50
2023-11-18T05:12:38.816Z,34.63
2023-11-18T05:15:08.642Z,32.90
2023-11-18T05:17:38.819Z,39.67
2023-11-18T05:20:09.954Z,32.22
2023-11-18T05:22:40.051Z,35.45
2023-11-18T05:25:08.472Z,38.78
2023-11-18T05:27:35.301Z,36.13
2023-11-18T05:30:02.291Z,36.42
2023-11-18T05:32:31.125Z,29.70
2023-11-18T05:34:58.827Z,32.42
2023-11-18T05:37:26.228Z,31.05
2023-11-18T05:40:00.545Z,31.48
2023-11-18T05:42:29.405Z,30.75
2023-11-18T05:45:00.423Z,37.78
2023-11-18T05:47:27.568Z,35.17
2023-11-18T05:49:55.181Z,37.13
2023-11-18T05:52:24.407Z,36.17
2023-11-18T05:54:51.246Z,37.63
2023-11-18T05:57:19.138Z,36.85
2023-11-18T05:59:49.947Z,35.25
2023-11-18T06:02:20.310Z,40.60
2023-11-18T06:04:50.411Z,35.45
2023-11-18T06:07:17.247Z,39.35
2023-11-18T06:09:48.915Z,38.55
2023-11-18T06:12:18.801Z,32.90
2023-11-18T06:14:48.104Z,30.52
2023-11-18T06:17:16.082Z,31.83
2023-11-18T06:19:43.231Z,35.80
2023-11-18T06:22:11.586Z,37.78
2023-11-18T06:24:42.816Z,35.58
2023-11-18T06:27:11.165Z,33.75
2023-11-18T06:29:38.057Z,34.50
2023-11-18T06:32:07.105Z,35.60
2023-11-18T06:34:34.152Z,36.30
2023-11-18T06:37:02.952Z,33.15
2023-11-18T06:39:30.928Z,34.20
2023-11-18T06:41:59.300Z,37.38
2023-11-18T06:44:26.233Z,36.47
2023-11-18T06:46:53.296Z,31.90
2023-11-18T06:49:20.698Z,36.10
2023-11-18T06:51:47.498Z,32.20
2023-11-18T06:54:16.854Z,32.92
2023-11-18T06:56:45.085Z,33.05
2023-11-18T06:59:15.896Z,29.40
2023-11-18T07:01:45.061Z,28.23
2023-11-18T07:04:15.210Z,37.83
2023-11-18T07:06:42.413Z,32.17
2023-11-18T07:09:15.494Z,29.83
2023-11-18T07:11:42.747Z,36.70
2023-11-18T07:14:12.471Z,33.35
2023-11-18T07:16:43.081Z,30.95
2023-11-18T07:19:16.117Z,34.17
2023-11-18T07:21:42.940Z,31.23
2023-11-18T07:24:10.713Z,30.17
2023-11-18T07:26:37.519Z,32.13
2023-11-18T07:29:04.477Z,31.35
2023-11-18T07:31:33.435Z,28.67
2023-11-18T07:34:00.614Z,31.25
2023-11-18T07:36:27.373Z,27.25
2023-11-18T07:38:56.246Z,30.05
2023-11-18T07:41:25.847Z,30.17
2023-11-18T07:43:57.061Z,26.55
2023-11-18T07:46:24.179Z,30.40
2023-11-18T07:48:57.902Z,27.20
2023-11-18T07:51:25.707Z,28.75
2023-11-18T07:53:54.115Z,23.58
2023-11-18T07:56:23.546Z,24.92
2023-11-18T07:58:53.007Z,23.15
2023-11-18T08:01:22.604Z,22.67
2023-11-18T08:03:52.023Z,23.85
2023-11-18T08:06:18.863Z,25.30
2023-11-18T08:08:45.716Z,26.98
2023-11-18T08:11:15.707Z,28.13
2023-11-18T08:13:42.879Z,26.60
2023-11-18T08:16:10.120Z,25.25
2023-11-18T08:18:37.723Z,23.10
2023-11-18T08:21:09.754Z,23.45
2023-11-18T08:23:36.987Z,22.25
2023-11-18T08:26:04.799Z,22.25
2023-11-18T08:28:31.665Z,21.13
2023-11-18T08:30:58.505Z,18.63
2023-11-18T08:33:27.016Z,23.30
2023-11-18T08:35:53.927Z,21.58
2023-11-18T08:38:20.936Z,23.23
2023-11-18T08:40:49.755Z,24.73
2023-11-18T08:43:17.515Z,25.33
2023-11-18T08:45:44.671Z,24.45
2023-11-18T08:48:12.223Z,19.10
2023-11-18T08:50:44.420Z,20.77
2023-11-18T08:53:13.031Z,18.75
2023-11-18T08:55:41.221Z,21.60
2023-11-18T08:58:20.727Z,20.48
2023-11-18T09:01:05.192Z,17.58
2023-11-18T09:03:44.254Z,19.63
2023-11-18T09:06:41.305Z,24.67
2023-11-18T09:09:12.219Z,23.40
2023-11-18T09:11:42.527Z,27.52
2023-11-18T09:14:09.911Z,23.52
2023-11-18T09:16:40.614Z,18.30
2023-11-18T09:19:07.518Z,18.50
2023-11-18T09:21:39.392Z,16.13
2023-11-18T09:24:11.184Z,12.98
2023-11-18T09:26:37.939Z,13.95
2023-11-18T09:29:04.957Z,15.95
2023-11-18T09:31:34.436Z,17.95
2023-11-18T09:34:02.124Z,16.08
2023-11-18T09:36:29.837Z,13.60
2023-11-18T09:38:57.734Z,16.73
2023-11-18T09:41:27.925Z,11.82
2023-11-18T09:43:57.646Z,13.98
2023-11-18T09:46:26.151Z,14.80
2023-11-18T09:49:18.569Z,15.00
2023-11-18T09:51:49.680Z,15.13
2023-11-18T09:54:30.275Z,13.77
2023-11-18T09:57:41.619Z,13.07
2023-11-18T10:00:22.124Z,14.13
2023-11-18T10:02:52.403Z,11.38
2023-11-18T10:05:22.151Z,12.25
2023-11-18T10:07:52.766Z,13.05
2023-11-18T10:10:25.703Z,15.57
2023-11-18T10:12:53.646Z,11.95
2023-11-18T10:15:26.260Z,11.43
2023-11-18T10:18:09.697Z,14.63
2023-11-18T10:20:48.317Z,12.60
2023-11-18T10:23:22.852Z,16.77
2023-11-18T10:25:55.299Z,12.45
2023-11-18T10:28:38.920Z,13.30
2023-11-18T10:31:10.722Z,13.65
2023-11-18T10:33:43.313Z,14.63
2023-11-18T10:36:23.546Z,15.43
2023-11-18T10:38:53.212Z,14.07
2023-11-18T10:41:20.806Z,11.38
2023-11-18T10:43:51.613Z,10.30
2023-11-18T10:46:19.673Z,18.35
2023-11-18T10:48:51.937Z,14.20
2023-11-18T10:51:21.400Z,9.75
2023-11-18T10:54:00.124Z,9.02
2023-11-18T10:56:30.093Z,8.38
2023-11-18T10:58:59.851Z,12.05
2023-11-18T11:01:46.209Z,7.32
2023-11-18T11:04:13.715Z,9.80
2023-11-18T11:06:53.538Z,6.93
2023-11-18T11:09:25.731Z,9.15
2023-11-18T11:12:08.413Z,7.53
2023-11-18T11:14:42.393Z,6.72
2023-11-18T11:17:27.020Z,9.35
2023-11-18T11:20:24.850Z,9.23
2023-11-18T11:23:23.573Z,13.63
2023-11-18T11:26:31.808Z,6.60
2023-11-18T11:29:31.082Z,6.45
2023-11-18T11:32:40.369Z,5.50
2023-11-18T11:35:31.113Z,4.65
2023-11-18T11:38:10.926Z,5.60
2023-11-18T11:40:39.080Z,8.30
2023-11-18T11:43:11.511Z,5.70
2023-11-18T11:45:44.362Z,3.50
2023-11-18T11:48:27.715Z,4.15
2023-11-18T11:51:21.511Z,5.05
2023-11-18T11:54:02.639Z,3.35
2023-11-18T11:56:51.142Z,3.92
2023-11-18T11:59:18.281Z,4.95
2023-11-18T12:01:53.515Z,5.97
2023-11-18T12:04:24.880Z,5.35
2023-11-18T12:07:05.567Z,4.90
2023-11-18T12:09:39.785Z,6.95
2023-11-18T12:12:15.762Z,2.80
2023-11-18T12:15:01.623Z,3.75
2023-11-18T12:17:33.427Z,6.80
2023-11-18T12:20:01.351Z,4.38
2023-11-18T12:22:31.330Z,4.35
2023-11-18T12:24:58.767Z,4.30
2023-11-18T12:27:47.737Z,4.07
2023-11-18T12:30:17.534Z,3.47
2023-11-18T12:33:12.603Z,4.22
2023-11-18T12:36:09.173Z,5.63
2023-11-18T12:39:36.761Z,3.53
2023-11-18T12:42:12.841Z,3.70
2023-11-18T12:45:18.283Z,2.42
2023-11-18T12:47:49.199Z,5.82
2023-11-18T12:50:25.563Z,5.38
2023-11-18T12:52:56.973Z,6.78
2023-11-18T12:55:24.213Z,5.77
2023-11-18T12:57:55.122Z,1.60
2023-11-18T13:00:28.895Z,3.63
2023-11-18T13:02:56.313Z,7.35
2023-11-18T13:05:23.472Z,6.03
2023-11-18T13:07:50.964Z,5.38
2023-11-18T13:10:18.405Z,3.83
2023-11-18T13:12:46.830Z,4.28
2023-11-18T13:15:13.850Z,3.58
2023-11-18T13:17:41.902Z,3.40
2023-11-18T13:20:16.253Z,7.28
2023-11-18T13:22:48.133Z,3.70
2023-11-18T13:25:15.973Z,5.68
2023-11-18T13:27:42.897Z,4.60
2023-11-18T13:30:14.732Z,6.07
2023-11-18T13:35:12.110Z,4.78
2023-11-18T13:37:38.925Z,4.28
2023-11-18T13:40:07.085Z,4.68
2023-11-18T13:42:34.661Z,5.57
2023-11-18T13:45:09.340Z,3.38
2023-11-18T13:47:37.865Z,2.60
2023-11-18T13:50:11.381Z,3.05
2023-11-18T13:52:39.927Z,3.60
2023-11-18T13:55:09.689Z,4.13
2023-11-18T13:57:36.896Z,4.97
2023-11-18T14:00:07.805Z,5.38
2023-11-18T14:02:37.028Z,8.57
2023-11-18T14:05:06.682Z,6.10
2023-11-18T14:07:40.669Z,4.65
2023-11-18T14:10:14.011Z,5.00
2023-11-18T14:12:41.177Z,3.42
2023-11-18T14:15:11.369Z,5.50
2023-11-18T14:17:38.394Z,6.10
2023-11-18T14:20:05.866Z,3.83
2023-11-18T14:22:32.700Z,7.63
2023-11-18T14:24:59.503Z,8.02
2023-11-18T14:27:26.919Z,5.55
2023-11-18T14:29:53.808Z,4.53
2023-11-18T14:32:20.733Z,3.42
2023-11-18T14:34:50.039Z,7.15
2023-11-18T14:37:16.887Z,6.47
2023-11-18T14:39:43.668Z,4.13
2023-11-18T14:42:10.550Z,2.63
2023-11-18T14:44:37.549Z,3.28
2023-11-18T14:47:06.885Z,3.65
2023-11-18T14:49:33.781Z,5.60
2023-11-18T14:52:00.613Z,7.72
2023-11-18T14:54:27.463Z,5.05
2023-11-18T14:56:54.356Z,5.63
2023-11-18T14:59:23.949Z,8.18
2023-11-18T15:01:50.891Z,3.17
2023-11-18T15:04:17.842Z,3.65
2023-11-18T15:06:44.748Z,3.72
2023-11-18T15:09:12.339Z,5.28
2023-11-18T15:11:39.382Z,5.43
2023-11-18T15:14:08.641Z,3.28
2023-11-18T15:16:36.137Z,5.53
2023-11-18T15:19:03.193Z,9.63
2023-11-18T15:21:31.003Z,4.75
2023-11-18T15:24:02.539Z,6.18
2023-11-18T15:26:33.953Z,2.80
2023-11-18T15:29:02.801Z,4.80
2023-11-18T15:31:30.994Z,5.43
2023-11-18T15:34:01.122Z,6.15
2023-11-18T15:36:28.138Z,4.80
2023-11-18T15:38:55.092Z,7.20
2023-11-18T15:41:23.189Z,6.25
2023-11-18T15:43:50.531Z,3.30
2023-11-18T15:46:17.861Z,4.57
2023-11-18T15:48:44.663Z,4.75
2023-11-18T15:51:14.334Z,4.20
2023-11-18T15:53:41.534Z,4.65
2023-11-18T15:56:10.017Z,4.80
2023-11-18T15:58:38.042Z,3.40
2023-11-18T16:01:05.370Z,3.70
2023-11-18T16:03:32.297Z,3.85
2023-11-18T16:05:59.211Z,5.05
2023-11-18T16:08:26.852Z,4.25
2023-11-18T16:10:55.117Z,4.88
2023-11-18T16:13:22.905Z,5.50
2023-11-18T16:15:49.745Z,3.30
2023-11-18T16:18:17.000Z,4.03
2023-11-18T16:20:43.922Z,4.25
2023-11-18T16:23:11.609Z,4.78
2023-11-18T16:25:39.014Z,4.05
2023-11-18T16:28:08.390Z,3.35
2023-11-18T16:30:35.219Z,4.05
2023-11-18T16:33:02.941Z,4.80
2023-11-18T16:35:30.977Z,4.35
2023-11-18T16:38:00.400Z,4.40
2023-11-18T16:40:27.319Z,5.10
2023-11-18T16:42:59.963Z,5.20
2023-11-18T16:45:27.837Z,3.85
2023-11-18T16:47:55.834Z,2.97
2023-11-18T16:50:25.794Z,3.95
2023-11-18T16:52:54.955Z,2.63
2023-11-18T16:55:22.918Z,3.33
2023-11-18T16:57:52.830Z,6.07
2023-11-18T17:00:25.740Z,2.60
2023-11-18T17:02:57.182Z,3.33
2023-11-18T17:05:29.278Z,2.35
2023-11-18T17:07:57.024Z,1.70
2023-11-18T17:10:24.552Z,3.35
2023-11-18T17:12:54.673Z,2.20
2023-11-18T17:15:21.681Z,3.05
2023-11-18T17:18:05.325Z,4.40
2023-11-18T17:20:33.181Z,2.83
2023-11-18T17:23:00.265Z,2.47
2023-11-18T17:25:27.380Z,3.10
2023-11-18T17:27:54.697Z,3.10
2023-11-18T17:30:22.367Z,3.92
2023-11-18T17:32:54.324Z,2.03
2023-11-18T17:35:22.242Z,2.28
2023-11-18T17:37:51.789Z,2.05
2023-11-18T17:40:22.235Z,1.30
2023-11-18T17:42:54.282Z,1.42
2023-11-18T17:45:21.950Z,1.00
2023-11-18T17:47:48.814Z,3.17
2023-11-18T17:50:18.277Z,1.00
2023-11-18T17:52:47.444Z,1.85
2023-11-18T17:55:14.760Z,0.75
2023-11-18T17:57:42.658Z,1.30
2023-11-18T18:00:14.022Z,0.90
2023-11-18T18:02:42.973Z,1.42
2023-11-18T18:05:13.375Z,0.80
2023-11-18T18:07:41.395Z,0.60
2023-11-18T18:10:10.867Z,4.07
2023-11-18T18:12:38.161Z,2.80
2023-11-18T18:15:11.654Z,8.13
2023-11-18T18:17:39.145Z,2.25
2023-11-18T18:20:09.848Z,1.25
2023-11-18T18:22:38.778Z,0.93
2023-11-18T18:25:06.299Z,1.77
2023-11-18T18:27:36.233Z,2.35
2023-11-18T18:30:04.352Z,3.35
2023-11-18T18:32:31.730Z,1.00
2023-11-18T18:34:58.884Z,1.52
2023-11-18T18:37:27.055Z,1.10
2023-11-18T18:39:55.205Z,1.23
2023-11-18T18:42:22.676Z,1.30
2023-11-18T18:44:49.638Z,0.88
2023-11-18T18:47:16.537Z,1.00
2023-11-18T18:49:43.592Z,1.10
2023-11-18T18:52:10.367Z,1.48
2023-11-18T18:54:37.187Z,1.77
2023-11-18T18:57:06.847Z,1.35
2023-11-18T18:59:33.788Z,0.90
2023-11-18T19:02:01.358Z,0.95
2023-11-18T19:04:28.257Z,0.90
2023-11-18T19:06:56.031Z,1.33
2023-11-18T19:09:22.964Z,1.00
2023-11-18T19:11:50.370Z,0.70
2023-11-18T19:14:17.504Z,1.00
2023-11-18T19:16:44.552Z,0.60
2023-11-18T19:19:11.385Z,0.70
2023-11-18T19:21:38.389Z,0.60
2023-11-18T19:24:08.233Z,0.77
2023-11-18T19:26:37.451Z,0.68
2023-11-18T19:29:04.741Z,2.22
2023-11-18T19:31:31.609Z,0.80
2023-11-18T19:33:59.995Z,2.10
2023-11-18T19:36:26.974Z,0.85
2023-11-18T19:38:53.994Z,0.85
2023-11-18T19:41:21.286Z,1.48
2023-11-18T19:43:49.865Z,1.60
2023-11-18T19:46:17.413Z,0.80
2023-11-18T19:48:44.311Z,2.47
2023-11-18T19:51:11.772Z,0.73
2023-11-18T19:53:38.832Z,1.55
2023-11-18T19:56:06.138Z,0.82
2023-11-18T19:58:32.960Z,0.90
2023-11-18T20:01:00.415Z,0.65
2023-11-18T20:03:27.569Z,0.95
2023-11-18T20:05:54.633Z,1.20
2023-11-18T20:08:21.520Z,1.33
2023-11-18T20:10:48.692Z,0.90
2023-11-18T20:13:16.548Z,2.55
2023-11-18T20:15:43.516Z,1.45
2023-11-18T20:18:11.300Z,1.90
2023-11-18T20:20:38.249Z,0.88
2023-11-18T20:23:05.887Z,1.25
2023-11-18T20:25:32.807Z,0.80
2023-11-18T20:27:59.577Z,1.70
2023-11-18T20:30:26.506Z,0.90
2023-11-18T20:32:53.630Z,0.80
2023-11-18T20:35:20.572Z,0.75
2023-11-18T20:37:48.867Z,3.05
2023-11-18T20:40:21.922Z,0.90
2023-11-18T20:42:50.369Z,1.00
2023-11-18T20:45:18.934Z,0.90
2023-11-18T20:47:47.575Z,1.40
2023-11-18T20:50:15.719Z,1.75
2023-11-18T20:52:43.611Z,1.90
2023-11-18T20:55:13.048Z,1.33
2023-11-18T20:57:40.101Z,0.85
2023-11-18T21:00:09.319Z,1.08
2023-11-18T21:02:36.655Z,2.25
2023-11-18T21:05:09.920Z,0.95
2023-11-18T21:07:37.003Z,3.75
2023-11-18T21:10:05.759Z,1.70
2023-11-18T21:12:34.881Z,1.83
2023-11-18T21:15:04.664Z,1.73
2023-11-18T21:17:32.545Z,0.93
2023-11-18T21:19:59.411Z,1.30
2023-11-18T21:22:27.543Z,4.50
2023-11-18T21:24:55.225Z,1.15
2023-11-18T21:27:21.994Z,2.10
2023-11-18T21:29:49.048Z,1.10
2023-11-18T21:32:15.853Z,1.77
2023-11-18T21:34:43.741Z,3.15
2023-11-18T21:37:11.386Z,1.42
2023-11-18T21:39:39.929Z,3.85
2023-11-18T21:42:08.631Z,2.10
2023-11-18T21:44:41.004Z,1.60
2023-11-18T21:47:11.234Z,1.83
2023-11-18T21:49:38.117Z,1.77
2023-11-18T21:52:05.396Z,3.35
2023-11-18T21:54:32.584Z,1.85
2023-11-18T21:57:00.197Z,1.85
2023-11-18T21:59:27.395Z,1.52
2023-11-18T22:01:55.950Z,2.10
2023-11-18T22:04:23.297Z,2.75
2023-11-18T22:06:53.392Z,2.65
2023-11-18T22:09:22.398Z,2.08
2023-11-18T22:11:50.478Z,2.72
2023-11-18T22:14:17.474Z,3.13
2023-11-18T22:16:44.338Z,2.47
2023-11-18T22:19:13.357Z,2.75
2023-11-18T22:21:40.335Z,21.48
2023-11-18T22:24:10.873Z,3.00
2023-11-18T22:26:38.857Z,2.58
2023-11-18T22:29:05.731Z,6.80
2023-11-18T22:31:32.679Z,4.75
2023-11-18T22:33:59.818Z,2.80
2023-11-18T22:36:26.590Z,8.60
2023-11-18T22:38:54.867Z,4.00
2023-11-18T22:41:21.727Z,2.80
2023-11-18T22:43:48.650Z,4.82
2023-11-18T22:46:15.630Z,3.22
2023-11-18T22:48:45.772Z,5.90
2023-11-18T22:51:12.836Z,4.95
2023-11-18T22:53:43.367Z,4.22
2023-11-18T22:56:13.363Z,3.90
2023-11-18T22:58:40.370Z,2.67
2023-11-18T23:01:12.352Z,4.90
2023-11-18T23:06:10.671Z,2.95
2023-11-18T23:08:37.828Z,3.47
2023-11-18T23:11:05.362Z,4.18
2023-11-18T23:13:33.257Z,2.88
2023-11-18T23:16:01.803Z,3.67
2023-11-18T23:18:29.908Z,4.20
2023-11-18T23:20:58.821Z,2.55
2023-11-18T23:23:25.910Z,7.57
2023-11-18T23:25:52.790Z,2.67
2023-11-18T23:28:19.940Z,4.13
2023-11-18T23:30:46.858Z,3.05
2023-11-18T23:33:13.661Z,3.63
2023-11-18T23:35:41.587Z,3.63
2023-11-18T23:38:08.832Z,3.35
2023-11-18T23:40:36.117Z,2.03
2023-11-18T23:43:03.184Z,2.50
2023-11-18T23:45:32.029Z,12.32
2023-11-18T23:47:59.098Z,1.98
2023-11-18T23:50:28.438Z,2.20
2023-11-18T23:52:55.740Z,4.85
2023-11-18T23:55:25.337Z,3.45
2023-11-18T23:57:52.590Z,4.05
